首页
METAR-TAF:

METAR-TAF

机场 :

北京首都国际机场

北京, 中华人民共和国

纬度: 39-56N, 经度: 116-17E, 海拔: 55米

当前天气观测

该预报发布于15分钟前的20:30 UTC
风速4节,风向北转西北
温度 4°C
湿度 93%
气压 1024 hPa
能見度: 1500
轻雾

METAR: ZBAA 142030Z 34002MPS 1500 R01/1400N R36R/P2000U R36L/1400D BR NSC 04/03 Q1024 NOSIG

时间: 04:45 (20:45 UTC)

预报

该预报发布于5小时和15分钟前的15:30 UTC
预报有效从14日的 18点(UTC)到 15日的 18点(UTC)
风速8节,风向北转东北
能見度: 2000
轻雾
短暂存在
从 14日的 18点(UTC)到 14日的 24点(UTC)
能見度: 0700
短暂存在
从 15日的 00点(UTC)到 15日的 06点(UTC)
能見度: 1400
小雨
成为
从 15日的 06点(UTC)到 15日的 07点(UTC)
能見度: 4000

TAF: ZBAA 141530Z 1418/1518 02004MPS 2000 BR NSC TX07/1507Z TN04/1422Z TEMPO 1418/1424 0700 FG TEMPO 1500/1506 1400 -RA BECMG 1506/1507 4000

超过4000个机场的气象观测和天气预报(METAR&TAF报告)。

可查询的气象台以黄色和红色小点在地图上表示。

将鼠标移到小点上方,可查看气象台名称。

然后点击查看天气观测和预报。

如需切换地图:点击带黑十字的绿色按钮放大地图;点击带横线的绿色按钮缩小地图;或者点击绿色箭头查看邻近地区的地图。


METAR-TAF: